sensor_id;sensor_type;location;lat;lon;timestamp;temperature;humidity
24436;DHT22;12616;52.470;13.436;2023-04-03T00:00:38;2.20;99.90
24436;DHT22;12616;52.470;13.436;2023-04-03T00:03:05;1.80;99.90
24436;DHT22;12616;52.470;13.436;2023-04-03T00:05:33;1.60;99.90
24436;DHT22;12616;52.470;13.436;2023-04-03T00:08:01;2.00;99.90
24436;DHT22;12616;52.470;13.436;2023-04-03T00:10:30;1.90;99.90
24436;DHT22;12616;52.470;13.436;2023-04-03T00:12:56;1.70;99.90
24436;DHT22;12616;52.470;13.436;2023-04-03T00:15:23;2.20;99.90
24436;DHT22;12616;52.470;13.436;2023-04-03T00:20:17;1.50;1.00
24436;DHT22;12616;52.470;13.436;2023-04-03T00:22:46;1.60;99.90
24436;DHT22;12616;52.470;13.436;2023-04-03T00:25:13;1.90;99.90
24436;DHT22;12616;52.470;13.436;2023-04-03T00:27:40;1.80;99.90
24436;DHT22;12616;52.470;13.436;2023-04-03T00:30:10;1.90;99.90
24436;DHT22;12616;52.470;13.436;2023-04-03T00:32:38;1.60;99.90
24436;DHT22;12616;52.470;13.436;2023-04-03T00:35:06;1.80;99.90
24436;DHT22;12616;52.470;13.436;2023-04-03T00:37:33;1.80;99.90
24436;DHT22;12616;52.470;13.436;2023-04-03T00:40:02;1.90;99.90
24436;DHT22;12616;52.470;13.436;2023-04-03T00:42:29;2.00;99.90
24436;DHT22;12616;52.470;13.436;2023-04-03T00:45:22;2.00;82.90
24436;DHT22;12616;52.470;13.436;2023-04-03T00:47:49;2.10;99.90
24436;DHT22;12616;52.470;13.436;2023-04-03T00:50:17;1.80;1.00
24436;DHT22;12616;52.470;13.436;2023-04-03T00:52:44;1.70;99.90
24436;DHT22;12616;52.470;13.436;2023-04-03T00:55:16;1.80;1.00
24436;DHT22;12616;52.470;13.436;2023-04-03T00:57:44;2.00;97.80
24436;DHT22;12616;52.470;13.436;2023-04-03T01:00:13;1.60;99.90
24436;DHT22;12616;52.470;13.436;2023-04-03T01:02:41;1.60;99.90
24436;DHT22;12616;52.470;13.436;2023-04-03T01:05:08;1.60;99.90
24436;DHT22;12616;52.470;13.436;2023-04-03T01:07:35;1.90;99.90
24436;DHT22;12616;52.470;13.436;2023-04-03T01:10:06;1.80;99.90
24436;DHT22;12616;52.470;13.436;2023-04-03T01:12:36;1.70;1.00
24436;DHT22;12616;52.470;13.436;2023-04-03T01:15:05;1.60;99.90
24436;DHT22;12616;52.470;13.436;2023-04-03T01:17:35;1.60;1.00
24436;DHT22;12616;52.470;13.436;2023-04-03T01:23:22;1.80;99.90
24436;DHT22;12616;52.470;13.436;2023-04-03T01:25:53;0.20;1.00
24436;DHT22;12616;52.470;13.436;2023-04-03T01:28:24;1.80;99.90
24436;DHT22;12616;52.470;13.436;2023-04-03T01:30:59;1.70;99.90
24436;DHT22;12616;52.470;13.436;2023-04-03T01:33:29;1.70;99.90
24436;DHT22;12616;52.470;13.436;2023-04-03T01:35:55;1.70;99.90
24436;DHT22;12616;52.470;13.436;2023-04-03T01:38:22;1.80;99.90
24436;DHT22;12616;52.470;13.436;2023-04-03T01:40:49;1.80;99.90
24436;DHT22;12616;52.470;13.436;2023-04-03T01:43:16;1.60;99.90
24436;DHT22;12616;52.470;13.436;2023-04-03T01:45:43;1.40;99.90
24436;DHT22;12616;52.470;13.436;2023-04-03T01:48:11;1.50;99.90
24436;DHT22;12616;52.470;13.436;2023-04-03T01:50:40;1.60;1.00
24436;DHT22;12616;52.470;13.436;2023-04-03T01:53:07;1.80;99.90
24436;DHT22;12616;52.470;13.436;2023-04-03T01:55:34;1.80;99.90
24436;DHT22;12616;52.470;13.436;2023-04-03T01:58:01;1.80;99.90
24436;DHT22;12616;52.470;13.436;2023-04-03T02:00:28;1.90;99.90
24436;DHT22;12616;52.470;13.436;2023-04-03T02:05:23;1.70;99.90
24436;DHT22;12616;52.470;13.436;2023-04-03T02:07:51;1.30;99.90
24436;DHT22;12616;52.470;13.436;2023-04-03T02:10:18;1.70;99.90
24436;DHT22;12616;52.470;13.436;2023-04-03T02:12:45;1.30;99.90
24436;DHT22;12616;52.470;13.436;2023-04-03T02:15:13;1.20;99.90
24436;DHT22;12616;52.470;13.436;2023-04-03T02:17:40;1.80;99.90
24436;DHT22;12616;52.470;13.436;2023-04-03T02:20:07;1.10;99.90
24436;DHT22;12616;52.470;13.436;2023-04-03T02:22:34;1.40;1.00
24436;DHT22;12616;52.470;13.436;2023-04-03T02:25:03;1.10;1.00
24436;DHT22;12616;52.470;13.436;2023-04-03T02:27:30;1.30;5.40
24436;DHT22;12616;52.470;13.436;2023-04-03T02:29:57;1.40;99.90
24436;DHT22;12616;52.470;13.436;2023-04-03T02:32:24;1.50;99.90
24436;DHT22;12616;52.470;13.436;2023-04-03T02:34:51;1.00;1.00
24436;DHT22;12616;52.470;13.436;2023-04-03T02:37:18;1.30;99.90
24436;DHT22;12616;52.470;13.436;2023-04-03T02:39:45;1.20;99.90
24436;DHT22;12616;52.470;13.436;2023-04-03T02:42:13;1.10;99.90
24436;DHT22;12616;52.470;13.436;2023-04-03T02:44:40;0.90;1.00
24436;DHT22;12616;52.470;13.436;2023-04-03T02:47:07;1.40;1.00
24436;DHT22;12616;52.470;13.436;2023-04-03T02:49:34;1.70;1.00
24436;DHT22;12616;52.470;13.436;2023-04-03T02:52:00;1.10;1.00
24436;DHT22;12616;52.470;13.436;2023-04-03T02:54:27;1.30;1.00
24436;DHT22;12616;52.470;13.436;2023-04-03T02:56:56;1.00;99.90
24436;DHT22;12616;52.470;13.436;2023-04-03T02:59:24;0.90;1.00
24436;DHT22;12616;52.470;13.436;2023-04-03T03:01:51;1.20;1.00
24436;DHT22;12616;52.470;13.436;2023-04-03T03:04:18;1.40;1.00
24436;DHT22;12616;52.470;13.436;2023-04-03T03:06:45;1.00;99.90
24436;DHT22;12616;52.470;13.436;2023-04-03T03:09:12;1.20;99.90
24436;DHT22;12616;52.470;13.436;2023-04-03T03:11:39;1.30;99.90
24436;DHT22;12616;52.470;13.436;2023-04-03T03:14:06;0.90;99.90
24436;DHT22;12616;52.470;13.436;2023-04-03T03:16:34;0.90;1.00
24436;DHT22;12616;52.470;13.436;2023-04-03T03:19:01;1.00;99.90
24436;DHT22;12616;52.470;13.436;2023-04-03T03:23:55;1.20;1.00
24436;DHT22;12616;52.470;13.436;2023-04-03T03:26:22;1.10;1.00
24436;DHT22;12616;52.470;13.436;2023-04-03T03:28:49;1.20;1.00
24436;DHT22;12616;52.470;13.436;2023-04-03T03:31:16;1.00;1.00
24436;DHT22;12616;52.470;13.436;2023-04-03T03:33:44;0.30;99.90
24436;DHT22;12616;52.470;13.436;2023-04-03T03:36:11;1.00;1.00
24436;DHT22;12616;52.470;13.436;2023-04-03T03:38:38;1.00;1.00
24436;DHT22;12616;52.470;13.436;2023-04-03T03:41:05;1.00;1.00
24436;DHT22;12616;52.470;13.436;2023-04-03T03:43:32;1.00;1.00
24436;DHT22;12616;52.470;13.436;2023-04-03T03:45:59;1.00;1.00
24436;DHT22;12616;52.470;13.436;2023-04-03T03:50:54;0.80;99.90
24436;DHT22;12616;52.470;13.436;2023-04-03T03:53:21;1.50;1.00
24436;DHT22;12616;52.470;13.436;2023-04-03T03:58:16;0.80;99.90
24436;DHT22;12616;52.470;13.436;2023-04-03T04:00:42;0.80;1.00
24436;DHT22;12616;52.470;13.436;2023-04-03T04:03:09;0.70;1.00
24436;DHT22;12616;52.470;13.436;2023-04-03T04:05:36;0.70;1.00
24436;DHT22;12616;52.470;13.436;2023-04-03T04:08:05;0.80;99.90
24436;DHT22;12616;52.470;13.436;2023-04-03T04:10:32;0.50;1.00
24436;DHT22;12616;52.470;13.436;2023-04-03T04:12:58;0.40;1.00
24436;DHT22;12616;52.470;13.436;2023-04-03T04:15:25;0.70;1.00
24436;DHT22;12616;52.470;13.436;2023-04-03T04:17:52;0.70;99.90
24436;DHT22;12616;52.470;13.436;2023-04-03T04:20:19;0.60;1.00
24436;DHT22;12616;52.470;13.436;2023-04-03T04:22:46;0.50;1.00
24436;DHT22;12616;52.470;13.436;2023-04-03T04:25:16;0.50;1.00
24436;DHT22;12616;52.470;13.436;2023-04-03T04:27:43;0.50;1.00
24436;DHT22;12616;52.470;13.436;2023-04-03T04:32:37;0.50;1.00
24436;DHT22;12616;52.470;13.436;2023-04-03T04:35:04;0.90;1.00
24436;DHT22;12616;52.470;13.436;2023-04-03T04:37:32;0.70;1.00
24436;DHT22;12616;52.470;13.436;2023-04-03T04:39:58;0.20;1.00
24436;DHT22;12616;52.470;13.436;2023-04-03T04:42:27;0.50;1.00
24436;DHT22;12616;52.470;13.436;2023-04-03T04:44:53;0.50;1.00
24436;DHT22;12616;52.470;13.436;2023-04-03T04:47:20;0.50;1.00
24436;DHT22;12616;52.470;13.436;2023-04-03T04:49:47;0.30;1.00
24436;DHT22;12616;52.470;13.436;2023-04-03T04:52:14;0.90;18.60
24436;DHT22;12616;52.470;13.436;2023-04-03T04:54:41;0.70;2.70
24436;DHT22;12616;52.470;13.436;2023-04-03T04:57:08;0.80;5.00
24436;DHT22;12616;52.470;13.436;2023-04-03T04:59:37;0.90;1.00
24436;DHT22;12616;52.470;13.436;2023-04-03T05:02:04;0.40;1.00
24436;DHT22;12616;52.470;13.436;2023-04-03T05:04:31;0.40;33.70
24436;DHT22;12616;52.470;13.436;2023-04-03T05:06:58;0.60;18.00
24436;DHT22;12616;52.470;13.436;2023-04-03T05:09:26;0.60;9.20
24436;DHT22;12616;52.470;13.436;2023-04-03T05:11:53;1.00;1.00
24436;DHT22;12616;52.470;13.436;2023-04-03T05:14:21;0.50;77.00
24436;DHT22;12616;52.470;13.436;2023-04-03T05:19:19;1.00;1.00
24436;DHT22;12616;52.470;13.436;2023-04-03T05:21:46;0.80;99.90
24436;DHT22;12616;52.470;13.436;2023-04-03T05:24:13;0.70;1.00
24436;DHT22;12616;52.470;13.436;2023-04-03T05:26:41;0.90;1.00
24436;DHT22;12616;52.470;13.436;2023-04-03T05:29:07;1.20;22.10
24436;DHT22;12616;52.470;13.436;2023-04-03T05:31:34;0.80;1.00
24436;DHT22;12616;52.470;13.436;2023-04-03T05:34:03;0.60;1.00
24436;DHT22;12616;52.470;13.436;2023-04-03T05:36:30;1.20;1.00
24436;DHT22;12616;52.470;13.436;2023-04-03T05:38:57;1.20;1.00
24436;DHT22;12616;52.470;13.436;2023-04-03T05:41:23;0.80;1.00
24436;DHT22;12616;52.470;13.436;2023-04-03T05:43:50;1.40;1.00
24436;DHT22;12616;52.470;13.436;2023-04-03T05:46:19;1.10;99.90
24436;DHT22;12616;52.470;13.436;2023-04-03T05:48:46;1.20;1.00
24436;DHT22;12616;52.470;13.436;2023-04-03T05:51:16;1.30;1.00
24436;DHT22;12616;52.470;13.436;2023-04-03T05:53:44;1.40;1.00
24436;DHT22;12616;52.470;13.436;2023-04-03T05:56:12;1.20;99.90
24436;DHT22;12616;52.470;13.436;2023-04-03T05:58:39;1.10;99.90
24436;DHT22;12616;52.470;13.436;2023-04-03T06:03:33;1.50;1.00
24436;DHT22;12616;52.470;13.436;2023-04-03T06:06:03;1.30;1.00
24436;DHT22;12616;52.470;13.436;2023-04-03T06:08:31;1.50;1.00
24436;DHT22;12616;52.470;13.436;2023-04-03T06:10:59;1.20;99.90
24436;DHT22;12616;52.470;13.436;2023-04-03T06:13:27;1.20;99.90
24436;DHT22;12616;52.470;13.436;2023-04-03T06:15:55;1.80;1.00
24436;DHT22;12616;52.470;13.436;2023-04-03T06:18:22;1.60;99.90
24436;DHT22;12616;52.470;13.436;2023-04-03T06:28:22;1.40;99.90
24436;DHT22;12616;52.470;13.436;2023-04-03T06:33:16;1.60;99.90
24436;DHT22;12616;52.470;13.436;2023-04-03T06:35:44;2.00;99.90
24436;DHT22;12616;52.470;13.436;2023-04-03T06:38:12;1.70;99.90
24436;DHT22;12616;52.470;13.436;2023-04-03T06:40:39;1.70;1.00
24436;DHT22;12616;52.470;13.436;2023-04-03T06:45:35;2.40;99.90
24436;DHT22;12616;52.470;13.436;2023-04-03T06:48:02;2.30;99.90
24436;DHT22;12616;52.470;13.436;2023-04-03T06:50:28;2.00;99.90
24436;DHT22;12616;52.470;13.436;2023-04-03T06:53:11;2.20;1.00
24436;DHT22;12616;52.470;13.436;2023-04-03T06:59:10;2.40;1.00
24436;DHT22;12616;52.470;13.436;2023-04-03T07:11:55;2.40;1.00
24436;DHT22;12616;52.470;13.436;2023-04-03T07:19:18;2.70;1.00
24436;DHT22;12616;52.470;13.436;2023-04-03T07:26:41;2.50;8.30
24436;DHT22;12616;52.470;13.436;2023-04-03T07:29:10;2.80;1.00
24436;DHT22;12616;52.470;13.436;2023-04-03T07:31:40;3.50;13.80
24436;DHT22;12616;52.470;13.436;2023-04-03T07:34:07;3.50;26.30
24436;DHT22;12616;52.470;13.436;2023-04-03T07:36:34;3.60;1.00
24436;DHT22;12616;52.470;13.436;2023-04-03T07:39:01;3.50;38.20
24436;DHT22;12616;52.470;13.436;2023-04-03T07:41:28;3.50;99.90
24436;DHT22;12616;52.470;13.436;2023-04-03T07:43:55;3.30;1.00
24436;DHT22;12616;52.470;13.436;2023-04-03T07:46:23;3.60;1.00
24436;DHT22;12616;52.470;13.436;2023-04-03T07:48:51;3.40;1.00
24436;DHT22;12616;52.470;13.436;2023-04-03T07:51:18;4.00;7.80
24436;DHT22;12616;52.470;13.436;2023-04-03T07:53:54;3.40;1.00
24436;DHT22;12616;52.470;13.436;2023-04-03T07:56:21;4.00;99.90
24436;DHT22;12616;52.470;13.436;2023-04-03T07:58:49;3.40;1.00
24436;DHT22;12616;52.470;13.436;2023-04-03T08:01:16;3.90;1.00
24436;DHT22;12616;52.470;13.436;2023-04-03T08:03:43;3.60;1.00
24436;DHT22;12616;52.470;13.436;2023-04-03T08:06:11;3.70;1.00
24436;DHT22;12616;52.470;13.436;2023-04-03T08:08:40;3.60;99.90
24436;DHT22;12616;52.470;13.436;2023-04-03T08:11:07;3.40;1.00
24436;DHT22;12616;52.470;13.436;2023-04-03T08:13:34;4.00;1.00
24436;DHT22;12616;52.470;13.436;2023-04-03T08:16:08;4.30;1.00
24436;DHT22;12616;52.470;13.436;2023-04-03T08:18:39;4.30;99.90
24436;DHT22;12616;52.470;13.436;2023-04-03T08:44:15;4.10;99.90
24436;DHT22;12616;52.470;13.436;2023-04-03T08:47:02;4.10;99.90
24436;DHT22;12616;52.470;13.436;2023-04-03T08:49:33;3.90;1.00
24436;DHT22;12616;52.470;13.436;2023-04-03T08:52:05;4.50;1.00
24436;DHT22;12616;52.470;13.436;2023-04-03T08:54:41;3.90;1.00
24436;DHT22;12616;52.470;13.436;2023-04-03T08:57:15;4.10;1.00
24436;DHT22;12616;52.470;13.436;2023-04-03T08:59:42;4.00;99.90
24436;DHT22;12616;52.470;13.436;2023-04-03T09:02:29;3.90;99.90
24436;DHT22;12616;52.470;13.436;2023-04-03T09:04:58;4.00;1.00
24436;DHT22;12616;52.470;13.436;2023-04-03T09:07:33;4.40;1.00
24436;DHT22;12616;52.470;13.436;2023-04-03T09:10:02;4.20;1.00
24436;DHT22;12616;52.470;13.436;2023-04-03T09:12:34;4.40;1.00
24436;DHT22;12616;52.470;13.436;2023-04-03T09:15:13;4.40;1.00
24436;DHT22;12616;52.470;13.436;2023-04-03T09:17:49;4.50;99.90
24436;DHT22;12616;52.470;13.436;2023-04-03T09:20:23;4.40;99.90
24436;DHT22;12616;52.470;13.436;2023-04-03T09:22:54;4.10;1.00
24436;DHT22;12616;52.470;13.436;2023-04-03T09:25:22;4.50;1.00
24436;DHT22;12616;52.470;13.436;2023-04-03T09:27:51;4.90;1.00
24436;DHT22;12616;52.470;13.436;2023-04-03T09:30:19;4.70;1.00
24436;DHT22;12616;52.470;13.436;2023-04-03T09:32:48;4.80;1.00
24436;DHT22;12616;52.470;13.436;2023-04-03T09:35:23;4.40;1.00
24436;DHT22;12616;52.470;13.436;2023-04-03T09:37:53;4.60;1.00
24436;DHT22;12616;52.470;13.436;2023-04-03T09:40:34;4.80;1.00
24436;DHT22;12616;52.470;13.436;2023-04-03T09:43:24;4.50;99.90
24436;DHT22;12616;52.470;13.436;2023-04-03T09:45:52;4.80;1.00
24436;DHT22;12616;52.470;13.436;2023-04-03T09:48:21;5.50;1.00
24436;DHT22;12616;52.470;13.436;2023-04-03T09:50:59;5.30;99.90
24436;DHT22;12616;52.470;13.436;2023-04-03T09:53:34;5.30;99.90
24436;DHT22;12616;52.470;13.436;2023-04-03T09:56:05;5.20;99.90
24436;DHT22;12616;52.470;13.436;2023-04-03T09:58:43;5.50;1.00
24436;DHT22;12616;52.470;13.436;2023-04-03T10:01:23;4.90;1.00
24436;DHT22;12616;52.470;13.436;2023-04-03T10:04:04;5.10;99.90
24436;DHT22;12616;52.470;13.436;2023-04-03T10:06:34;5.40;1.00
24436;DHT22;12616;52.470;13.436;2023-04-03T10:09:05;4.70;1.00
24436;DHT22;12616;52.470;13.436;2023-04-03T10:11:33;4.90;99.90
24436;DHT22;12616;52.470;13.436;2023-04-03T10:14:02;5.40;1.00
24436;DHT22;12616;52.470;13.436;2023-04-03T10:16:36;5.50;99.90
24436;DHT22;12616;52.470;13.436;2023-04-03T10:19:30;5.80;1.00
24436;DHT22;12616;52.470;13.436;2023-04-03T10:22:01;6.00;99.90
24436;DHT22;12616;52.470;13.436;2023-04-03T10:24:47;6.10;99.90
24436;DHT22;12616;52.470;13.436;2023-04-03T10:27:19;6.00;1.00
24436;DHT22;12616;52.470;13.436;2023-04-03T10:29:59;5.50;1.00
24436;DHT22;12616;52.470;13.436;2023-04-03T10:32:42;5.20;1.00
24436;DHT22;12616;52.470;13.436;2023-04-03T10:35:18;5.40;99.90
24436;DHT22;12616;52.470;13.436;2023-04-03T10:37:58;5.00;99.90
24436;DHT22;12616;52.470;13.436;2023-04-03T10:40:35;5.20;99.90
24436;DHT22;12616;52.470;13.436;2023-04-03T10:43:09;4.90;1.00
24436;DHT22;12616;52.470;13.436;2023-04-03T10:45:49;5.60;99.90
24436;DHT22;12616;52.470;13.436;2023-04-03T10:48:26;5.10;1.00
24436;DHT22;12616;52.470;13.436;2023-04-03T10:51:00;5.20;1.00
24436;DHT22;12616;52.470;13.436;2023-04-03T10:53:34;5.40;99.90
24436;DHT22;12616;52.470;13.436;2023-04-03T10:56:12;5.40;99.90
24436;DHT22;12616;52.470;13.436;2023-04-03T10:58:44;5.30;99.90
24436;DHT22;12616;52.470;13.436;2023-04-03T11:01:16;5.60;99.90
24436;DHT22;12616;52.470;13.436;2023-04-03T11:03:44;5.90;99.90
24436;DHT22;12616;52.470;13.436;2023-04-03T11:06:15;5.90;99.90
24436;DHT22;12616;52.470;13.436;2023-04-03T11:08:44;5.80;99.90
24436;DHT22;12616;52.470;13.436;2023-04-03T11:11:19;5.30;1.00
24436;DHT22;12616;52.470;13.436;2023-04-03T11:13:57;5.30;1.00
24436;DHT22;12616;52.470;13.436;2023-04-03T11:16:28;5.60;99.90
24436;DHT22;12616;52.470;13.436;2023-04-03T11:18:59;5.50;1.00
24436;DHT22;12616;52.470;13.436;2023-04-03T11:21:28;5.20;1.00
24436;DHT22;12616;52.470;13.436;2023-04-03T11:23:57;5.40;1.00
24436;DHT22;12616;52.470;13.436;2023-04-03T11:26:29;5.60;99.90
24436;DHT22;12616;52.470;13.436;2023-04-03T11:28:59;5.30;1.00
24436;DHT22;12616;52.470;13.436;2023-04-03T11:31:41;5.50;99.90
24436;DHT22;12616;52.470;13.436;2023-04-03T11:34:22;5.50;99.90
24436;DHT22;12616;52.470;13.436;2023-04-03T11:36:53;5.30;1.00
24436;DHT22;12616;52.470;13.436;2023-04-03T11:39:24;5.60;1.00
24436;DHT22;12616;52.470;13.436;2023-04-03T11:41:54;5.50;1.00
24436;DHT22;12616;52.470;13.436;2023-04-03T11:44:32;5.40;99.90
24436;DHT22;12616;52.470;13.436;2023-04-03T11:47:00;5.80;1.00
24436;DHT22;12616;52.470;13.436;2023-04-03T11:52:55;5.60;1.00
24436;DHT22;12616;52.470;13.436;2023-04-03T11:55:56;5.10;1.00
24436;DHT22;12616;52.470;13.436;2023-04-03T11:58:26;5.70;1.00
24436;DHT22;12616;52.470;13.436;2023-04-03T12:01:02;5.90;1.00
24436;DHT22;12616;52.470;13.436;2023-04-03T12:06:58;5.70;1.00
24436;DHT22;12616;52.470;13.436;2023-04-03T12:09:33;5.50;1.00
24436;DHT22;12616;52.470;13.436;2023-04-03T12:15:38;5.80;99.90
24436;DHT22;12616;52.470;13.436;2023-04-03T12:21:19;5.80;99.90
24436;DHT22;12616;52.470;13.436;2023-04-03T12:23:59;6.00;1.00
24436;DHT22;12616;52.470;13.436;2023-04-03T12:26:30;5.80;99.90
24436;DHT22;12616;52.470;13.436;2023-04-03T12:28:58;5.70;99.90
24436;DHT22;12616;52.470;13.436;2023-04-03T12:31:37;5.90;99.90
24436;DHT22;12616;52.470;13.436;2023-04-03T12:34:15;6.00;99.90
24436;DHT22;12616;52.470;13.436;2023-04-03T12:36:51;6.30;1.00
24436;DHT22;12616;52.470;13.436;2023-04-03T12:42:30;5.60;99.90
24436;DHT22;12616;52.470;13.436;2023-04-03T12:45:15;5.90;99.90
24436;DHT22;12616;52.470;13.436;2023-04-03T12:47:49;5.70;99.90
24436;DHT22;12616;52.470;13.436;2023-04-03T12:50:27;5.80;99.90
24436;DHT22;12616;52.470;13.436;2023-04-03T12:53:02;6.00;99.90
24436;DHT22;12616;52.470;13.436;2023-04-03T13:03:26;5.70;99.90
24436;DHT22;12616;52.470;13.436;2023-04-03T13:06:04;5.70;99.90
24436;DHT22;12616;52.470;13.436;2023-04-03T13:11:07;6.00;99.90
24436;DHT22;12616;52.470;13.436;2023-04-03T13:13:54;6.20;99.90
24436;DHT22;12616;52.470;13.436;2023-04-03T13:18:55;6.20;99.90
24436;DHT22;12616;52.470;13.436;2023-04-03T13:21:27;5.90;99.90
24436;DHT22;12616;52.470;13.436;2023-04-03T13:24:00;6.10;99.90
24436;DHT22;12616;52.470;13.436;2023-04-03T13:29:32;6.20;99.90
24436;DHT22;12616;52.470;13.436;2023-04-03T13:32:13;6.10;99.90
24436;DHT22;12616;52.470;13.436;2023-04-03T13:37:33;5.80;1.00
24436;DHT22;12616;52.470;13.436;2023-04-03T13:40:11;5.50;99.90
24436;DHT22;12616;52.470;13.436;2023-04-03T13:45:20;5.40;99.90
24436;DHT22;12616;52.470;13.436;2023-04-03T13:53:11;5.50;99.90
24436;DHT22;12616;52.470;13.436;2023-04-03T13:55:58;5.60;99.90
24436;DHT22;12616;52.470;13.436;2023-04-03T13:58:53;5.60;99.90
24436;DHT22;12616;52.470;13.436;2023-04-03T14:01:22;5.60;99.90
24436;DHT22;12616;52.470;13.436;2023-04-03T14:03:56;5.70;99.90
24436;DHT22;12616;52.470;13.436;2023-04-03T14:11:29;5.70;99.90
24436;DHT22;12616;52.470;13.436;2023-04-03T14:16:33;5.70;99.90
24436;DHT22;12616;52.470;13.436;2023-04-03T14:36:45;5.70;99.90
24436;DHT22;12616;52.470;13.436;2023-04-03T14:39:17;5.90;99.90
24436;DHT22;12616;52.470;13.436;2023-04-03T14:41:45;6.10;99.90
24436;DHT22;12616;52.470;13.436;2023-04-03T14:47:14;6.10;99.90
24436;DHT22;12616;52.470;13.436;2023-04-03T14:55:16;5.90;99.90
24436;DHT22;12616;52.470;13.436;2023-04-03T15:05:43;5.60;99.90
24436;DHT22;12616;52.470;13.436;2023-04-03T15:08:21;5.60;99.90
24436;DHT22;12616;52.470;13.436;2023-04-03T15:10:50;5.50;99.90
24436;DHT22;12616;52.470;13.436;2023-04-03T15:13:19;5.40;99.90
24436;DHT22;12616;52.470;13.436;2023-04-03T15:18:23;5.30;99.90
24436;DHT22;12616;52.470;13.436;2023-04-03T17:00:31;4.90;99.90
24436;DHT22;12616;52.470;13.436;2023-04-03T17:22:07;4.60;99.90
24436;DHT22;12616;52.470;13.436;2023-04-03T17:27:31;4.60;99.90
24436;DHT22;12616;52.470;13.436;2023-04-03T17:43:58;4.50;99.90
24436;DHT22;12616;52.470;13.436;2023-04-03T17:49:27;4.50;99.90
24436;DHT22;12616;52.470;13.436;2023-04-03T18:08:58;4.30;99.90
24436;DHT22;12616;52.470;13.436;2023-04-03T19:09:27;3.70;1.00
24436;DHT22;12616;52.470;13.436;2023-04-03T19:48:33;3.50;1.00
24436;DHT22;12616;52.470;13.436;2023-04-03T20:15:44;3.60;1.00
24436;DHT22;12616;52.470;13.436;2023-04-03T20:18:59;3.50;1.00
24436;DHT22;12616;52.470;13.436;2023-04-03T20:21:56;3.40;1.00
24436;DHT22;12616;52.470;13.436;2023-04-03T21:05:36;3.00;1.00
24436;DHT22;12616;52.470;13.436;2023-04-03T21:20:22;2.90;1.00
24436;DHT22;12616;52.470;13.436;2023-04-03T22:32:30;2.10;99.90
24436;DHT22;12616;52.470;13.436;2023-04-03T22:37:25;1.70;1.00
24436;DHT22;12616;52.470;13.436;2023-04-03T22:39:52;1.70;99.90
24436;DHT22;12616;52.470;13.436;2023-04-03T22:42:20;1.60;99.90
24436;DHT22;12616;52.470;13.436;2023-04-03T22:44:47;1.80;99.90
24436;DHT22;12616;52.470;13.436;2023-04-03T22:49:42;1.70;99.90
24436;DHT22;12616;52.470;13.436;2023-04-03T22:52:08;2.00;99.90
24436;DHT22;12616;52.470;13.436;2023-04-03T22:54:35;1.40;99.90
24436;DHT22;12616;52.470;13.436;2023-04-03T22:57:03;1.50;99.90
24436;DHT22;12616;52.470;13.436;2023-04-03T22:59:31;1.30;99.90
24436;DHT22;12616;52.470;13.436;2023-04-03T23:01:58;1.60;97.50
24436;DHT22;12616;52.470;13.436;2023-04-03T23:04:24;1.50;99.90
24436;DHT22;12616;52.470;13.436;2023-04-03T23:06:51;1.60;99.90
24436;DHT22;12616;52.470;13.436;2023-04-03T23:09:18;1.40;99.90
24436;DHT22;12616;52.470;13.436;2023-04-03T23:11:45;1.70;99.90
24436;DHT22;12616;52.470;13.436;2023-04-03T23:14:12;1.30;99.90
24436;DHT22;12616;52.470;13.436;2023-04-03T23:16:40;1.80;1.00
24436;DHT22;12616;52.470;13.436;2023-04-03T23:19:07;1.50;99.90
24436;DHT22;12616;52.470;13.436;2023-04-03T23:21:34;1.40;99.90
24436;DHT22;12616;52.470;13.436;2023-04-03T23:26:28;1.10;99.90
24436;DHT22;12616;52.470;13.436;2023-04-03T23:28:55;0.80;1.00
24436;DHT22;12616;52.470;13.436;2023-04-03T23:31:21;1.60;99.90
24436;DHT22;12616;52.470;13.436;2023-04-03T23:33:51;1.40;99.90
24436;DHT22;12616;52.470;13.436;2023-04-03T23:36:18;1.20;99.90
24436;DHT22;12616;52.470;13.436;2023-04-03T23:41:13;1.60;99.90
24436;DHT22;12616;52.470;13.436;2023-04-03T23:43:40;1.40;99.90
24436;DHT22;12616;52.470;13.436;2023-04-03T23:46:07;1.10;99.90
24436;DHT22;12616;52.470;13.436;2023-04-03T23:48:34;1.10;99.90
24436;DHT22;12616;52.470;13.436;2023-04-03T23:51:02;1.20;99.90
24436;DHT22;12616;52.470;13.436;2023-04-03T23:53:29;1.20;99.90
24436;DHT22;12616;52.470;13.436;2023-04-03T23:55:56;1.20;99.90
24436;DHT22;12616;52.470;13.436;2023-04-03T23:58:23;1.60;1.00
